Terminal Aerodrome Forecast
Issued by NWS

Home | Current Version | Previous Version | Text Only | Print | Product List | Glossary On
Versions: 1 2 3 4 5 6 7 8 9 10 11 12 13 14 15 16 17 18 19 20 21 22 23
802
FTUS46 KMFR 271120
TAFOTH
TAF
KOTH 271120Z 2712/2812 19003KT P6SM OVC012
     FM271500 14005KT P6SM OVC008
     FM271800 30008KT P6SM OVC012
     FM272100 30010KT P6SM SCT012
     FM280100 VRB03KT P6SM OVC010=

USA.gov is the U.S. government's official web portal to all federal, state and local government web resources and services.